Time;durP1;ratioP1;P1;durP2;ratioP2;P2;SDS_P1;SDS_P2;PMS_P1;PMS_P2;Temp;Humidity;BMP_temperature;BMP_pressure;BME280_temperature;BME280_humidity;BME280_pressure;Samples;Min_cycle;Max_cycle;Signal;HPM_P1;HPM_P2
2022/05/29 00:00:44;;;;;;;3.80;0.63;;;;;;;22.18;49.50;100146.59;5068129;28;20059;-68
2022/05/29 00:03:29;;;;;;;1.15;0.35;;;;;;;22.18;45.33;100143.84;5067533;28;20081;-67
2022/05/29 00:06:14;;;;;;;;;;;;;;;21.94;49.35;100152.34;5067590;28;20048;-67
2022/05/29 00:08:59;;;;;;;0.63;0.30;;;;;;;21.30;47.78;100164.47;5067222;28;20380;-67
2022/05/29 00:11:46;;;;;;;1.02;0.40;;;;;;;21.02;50.38;100178.38;5067387;28;20515;-67
2022/05/29 00:14:32;;;;;;;3.08;0.45;;;;;;;21.85;48.51;100182.38;5067194;28;20047;-67
2022/05/29 00:17:19;;;;;;;2.45;0.47;;;;;;;21.50;49.32;100192.47;5067232;28;20047;-67
2022/05/29 00:20:05;;;;;;;0.85;0.30;;;;;;;21.74;47.17;100208.16;5063896;28;20044;-65
2022/05/29 00:22:49;;;;;;;2.92;0.60;;;;;;;21.90;49.89;100215.19;5053735;28;20048;-67
2022/05/29 00:25:34;;;;;;;2.35;0.60;;;;;;;21.56;50.15;100209.44;5053965;28;20415;-66
2022/05/29 00:28:20;;;;;;;0.60;0.50;;;;;;;21.20;48.15;100223.38;5053979;28;20052;-67
2022/05/29 00:31:05;;;;;;;1.75;0.50;;;;;;;21.56;48.18;100229.59;5053391;28;20052;-66
2022/05/29 00:33:50;;;;;;;2.47;0.68;;;;;;;21.55;51.28;100232.75;5053846;28;20056;-66
2022/05/29 00:36:40;;;;;;;1.40;0.50;;;;;;;21.46;47.92;100229.63;5053548;28;20045;-66
2022/05/29 00:39:26;;;;;;;4.97;0.40;;;;;;;21.65;49.00;100240.22;5053751;28;20052;-63
2022/05/29 00:42:13;;;;;;;1.30;0.50;;;;;;;21.66;50.72;100244.56;5053334;28;20047;-66
2022/05/29 00:44:58;;;;;;;1.92;1.02;;;;;;;21.06;49.57;100247.47;5059364;28;20403;-66
2022/05/29 00:48:12;;;;;;;1.75;0.30;;;;;;;20.84;50.38;100238.41;5054267;28;20059;-66
2022/05/29 00:51:04;;;;;;;1.45;0.50;;;;;;;21.33;51.01;100237.59;4971472;28;20053;-64
2022/05/29 00:53:50;;;;;;;2.20;0.50;;;;;;;21.62;49.25;100238.28;4975172;28;20062;-64
2022/05/29 00:56:38;;;;;;;0.68;0.30;;;;;;;21.65;50.28;100226.38;4974424;28;20532;-64
2022/05/29 00:59:27;;;;;;;1.55;0.30;;;;;;;21.61;50.88;100220.09;4955129;29;20514;-63
2022/05/29 01:02:13;;;;;;;1.30;0.50;;;;;;;21.98;49.91;100203.72;4954940;29;20046;-65
2022/05/29 01:04:58;;;;;;;0.95;0.47;;;;;;;21.83;49.46;100193.88;4949114;29;20054;-65
2022/05/29 01:07:46;;;;;;;1.27;0.40;;;;;;;21.70;50.54;100198.28;4954745;29;20054;-64
2022/05/29 01:10:43;;;;;;;2.97;0.70;;;;;;;21.96;49.10;100203.31;4954891;28;20054;-65
2022/05/29 01:13:42;;;;;;;3.72;0.50;;;;;;;21.86;49.55;100203.34;4954796;29;20411;-65
2022/05/29 01:16:26;;;;;;;2.47;0.40;;;;;;;22.32;49.90;100197.53;4954903;29;20047;-66
2022/05/29 01:19:24;;;;;;;1.90;0.55;;;;;;;22.32;48.99;100186.47;4954658;29;20047;-65
2022/05/29 01:22:08;;;;;;;0.52;0.40;;;;;;;21.53;45.85;100179.81;4935763;29;20050;-64
2022/05/29 01:25:12;;;;;;;1.05;0.73;;;;;;;21.94;49.19;100177.25;4935466;29;20050;-64
2022/05/29 01:28:03;;;;;;;1.92;0.50;;;;;;;21.52;43.46;100167.16;4948613;29;20062;-62
2022/05/29 01:30:55;;;;;;;3.55;0.50;;;;;;;21.81;50.00;100165.03;4954297;29;20042;-64
2022/05/29 01:33:56;;;;;;;0.50;0.40;;;;;;;21.93;49.09;100170.09;4953397;29;20398;-62
2022/05/29 01:37:06;;;;;;;1.10;0.43;;;;;;;21.65;44.30;100165.50;4953965;29;20054;-63
2022/05/29 01:40:06;;;;;;;1.30;0.50;;;;;;;21.57;43.25;100175.03;4954258;29;20062;-63
2022/05/29 01:43:02;;;;;;;1.30;0.70;;;;;;;21.47;49.08;100164.81;4953435;29;20062;-62
2022/05/29 01:45:55;;;;;;;1.45;0.30;;;;;;;21.41;48.64;100155.34;4948381;29;20054;-63
2022/05/29 01:49:03;;;;;;;1.25;0.60;;;;;;;21.74;45.90;100155.56;4953650;28;20042;-63
2022/05/29 01:52:04;;;;;;;3.10;0.40;;;;;;;21.74;45.17;100140.94;4934816;29;20054;-65
2022/05/29 01:55:03;;;;;;;1.23;0.40;;;;;;;21.76;47.84;100124.72;4953933;29;20057;-65
2022/05/29 01:57:53;;;;;;;0.90;0.40;;;;;;;21.93;42.18;100131.34;4953810;29;20050;-66
2022/05/29 02:00:39;;;;;;;1.55;0.70;;;;;;;22.21;49.23;100133.13;4954136;29;20062;-66
2022/05/29 02:03:35;;;;;;;0.88;0.60;;;;;;;21.73;44.46;100128.31;4953672;29;20427;-65
2022/05/29 02:07:47;;;;;;;1.23;0.60;;;;;;;21.74;45.74;100107.72;4951272;28;20042;-66
2022/05/29 02:09:47;;;;;;;2.53;0.70;;;;;;;21.32;47.04;100115.09;4953478;29;20418;-66
2022/05/29 02:12:34;;;;;;;0.88;0.57;;;;;;;21.88;45.36;100113.19;4951382;29;20046;-64
2022/05/29 02:15:28;;;;;;;3.17;0.75;;;;;;;22.23;48.64;100112.16;4953416;29;20058;-63
2022/05/29 02:18:22;;;;;;;2.05;0.60;;;;;;;21.67;45.02;100089.19;4950276;28;20046;-64
2022/05/29 02:21:11;;;;;;;;;;;;;;;21.93;45.16;100087.03;4954127;29;20042;-64
2022/05/29 02:24:00;;;;;;;2.38;0.80;;;;;;;21.81;48.74;100080.00;4947359;29;19914;-64
2022/05/29 02:26:58;;;;;;;1.95;0.57;;;;;;;21.97;48.15;100069.22;4952766;29;20062;-65
2022/05/29 02:29:43;;;;;;;1.00;0.55;;;;;;;22.00;44.90;100060.09;4953377;29;20513;-64
2022/05/29 02:32:31;;;;;;;4.85;1.25;;;;;;;21.85;42.55;100047.53;4953546;29;20546;-66
2022/05/29 02:35:33;;;;;;;3.60;0.80;;;;;;;22.13;46.46;100041.81;4958681;28;20070;-64
2022/05/29 02:38:28;;;;;;;1.75;0.60;;;;;;;22.24;46.32;100038.16;4950148;29;20046;-66
2022/05/29 02:41:23;;;;;;;1.67;0.70;;;;;;;21.61;45.82;100027.16;4953520;29;20039;-66
2022/05/29 02:44:31;;;;;;;1.25;0.52;;;;;;;21.43;42.74;100022.97;4953391;28;20410;-68
2022/05/29 02:47:39;;;;;;;4.43;0.70;;;;;;;21.72;42.97;100016.00;4954096;28;20047;-68
2022/05/29 02:50:34;;;;;;;2.55;0.73;;;;;;;21.69;49.76;100012.06;4953509;29;20534;-65
2022/05/29 02:53:19;;;;;;;1.15;0.50;;;;;;;21.83;47.23;100013.97;4953819;29;20058;-66
2022/05/29 02:56:05;;;;;;;5.13;0.80;;;;;;;21.86;48.30;100001.25;4953518;29;20050;-65
2022/05/29 02:58:53;;;;;;;1.88;0.70;;;;;;;21.98;48.43;100015.44;4946867;29;20051;-64
2022/05/29 03:01:48;;;;;;;2.33;0.50;;;;;;;22.27;48.04;100006.84;4953388;29;20517;-64
2022/05/29 03:04:44;;;;;;;1.45;0.43;;;;;;;22.20;46.31;99995.84;4952846;29;20046;-65
2022/05/29 03:07:50;;;;;;;1.77;0.80;;;;;;;22.24;47.20;99996.59;4952851;29;20517;-66
2022/05/29 03:10:40;;;;;;;2.08;0.47;;;;;;;22.38;47.05;99985.34;4951748;29;20513;-67
2022/05/29 03:13:46;;;;;;;2.58;0.90;;;;;;;22.25;45.82;99984.31;4952700;29;20066;-67
2022/05/29 03:16:51;;;;;;;1.38;0.82;;;;;;;21.98;45.05;99976.66;4952974;29;20042;-65
2022/05/29 03:19:52;;;;;;;3.58;0.80;;;;;;;22.40;46.76;99966.34;4952782;29;20046;-63
2022/05/29 03:22:40;;;;;;;3.53;1.20;;;;;;;22.15;46.22;99961.84;4952453;29;20054;-63
2022/05/29 03:25:31;;;;;;;1.15;0.60;;;;;;;21.95;43.27;99958.09;4952464;29;20046;-64
2022/05/29 03:28:26;;;;;;;1.27;0.70;;;;;;;21.97;44.77;99950.16;4952673;29;20050;-65
2022/05/29 03:31:18;;;;;;;3.78;1.00;;;;;;;22.00;40.88;99945.78;4951609;29;20066;-64
2022/05/29 03:34:03;;;;;;;0.95;0.47;;;;;;;21.89;40.58;99940.31;4948976;29;20062;-65
2022/05/29 03:36:50;;;;;;;4.30;0.50;;;;;;;22.10;45.66;99934.59;4952159;29;20054;-65
2022/05/29 03:39:35;;;;;;;1.52;1.00;;;;;;;21.56;40.69;99929.97;4952536;29;20446;-63
2022/05/29 03:42:20;;;;;;;2.03;0.70;;;;;;;21.69;45.39;99931.03;4952439;29;20067;-64
2022/05/29 03:45:08;;;;;;;1.10;0.50;;;;;;;22.04;46.32;99944.56;4939113;29;20050;-65
2022/05/29 03:47:52;;;;;;;1.70;0.60;;;;;;;22.16;45.84;99940.47;4951334;29;20514;-67
2022/05/29 03:50:37;;;;;;;2.50;0.52;;;;;;;22.30;45.07;99937.53;4952302;29;20558;-67
2022/05/29 03:53:22;;;;;;;6.35;1.13;;;;;;;22.38;42.01;99938.25;4950425;29;20062;-65
2022/05/29 03:56:07;;;;;;;1.85;0.68;;;;;;;22.39;42.00;99937.06;4953719;28;20514;-67
2022/05/29 03:58:53;;;;;;;4.57;1.80;;;;;;;22.21;45.47;99937.25;4941586;29;20046;-65
2022/05/29 04:01:39;;;;;;;1.75;0.75;;;;;;;22.52;44.08;99933.31;4956074;29;20046;-64
2022/05/29 04:04:25;;;;;;;1.45;0.60;;;;;;;22.00;38.60;99943.00;4955716;29;20123;-65
2022/05/29 04:07:10;;;;;;;3.40;0.85;;;;;;;21.80;40.18;99937.25;4955646;29;20415;-66
2022/05/29 04:12:59;;;;;;;1.42;0.70;;;;;;;21.89;42.14;99943.09;4955226;29;20042;-63
2022/05/29 04:15:47;;;;;;;4.03;0.88;;;;;;;22.28;43.66;99934.41;4955359;28;20518;-65
2022/05/29 04:18:32;;;;;;;1.98;0.60;;;;;;;22.35;44.42;99931.53;4955566;29;20050;-63
2022/05/29 04:21:17;;;;;;;3.00;0.98;;;;;;;22.30;42.61;99939.56;4952396;29;20046;-63
2022/05/29 04:24:02;;;;;;;2.72;1.00;;;;;;;22.52;44.85;99946.38;4956746;28;20047;-64
2022/05/29 04:26:49;;;;;;;3.63;0.80;;;;;;;22.60;42.94;99942.34;4940138;29;20054;-64
2022/05/29 04:29:34;;;;;;;4.60;0.73;;;;;;;22.61;42.34;99949.44;4944249;29;20050;-64
2022/05/29 04:35:22;;;;;;;4.22;0.85;;;;;;;21.70;36.49;99943.66;4952651;29;20062;-62
2022/05/29 04:38:08;;;;;;;2.72;0.60;;;;;;;21.58;38.36;99944.97;4955047;29;20046;-63
2022/05/29 04:40:55;;;;;;;3.63;0.90;;;;;;;21.86;45.60;99937.59;4947962;29;20054;-63
2022/05/29 04:43:39;;;;;;;4.03;0.90;;;;;;;22.01;45.52;99934.31;4948059;28;20054;-65
2022/05/29 04:46:25;;;;;;;2.42;0.77;;;;;;;21.72;44.20;99933.78;4954614;29;20050;-64
2022/05/29 04:49:10;;;;;;;3.75;0.90;;;;;;;22.01;40.11;99933.50;4955636;29;20058;-65
2022/05/29 04:51:55;;;;;;;6.68;0.93;;;;;;;22.24;44.82;99930.13;4954704;28;20525;-65
2022/05/29 04:54:41;;;;;;;1.10;0.60;;;;;;;21.89;40.42;99926.47;4953237;29;20058;-67
2022/05/29 04:57:26;;;;;;;3.83;0.73;;;;;;;21.84;44.08;99928.94;4955093;29;20054;-67
2022/05/29 05:00:12;;;;;;;5.05;0.90;;;;;;;21.41;38.73;99922.97;4954647;29;20411;-63
2022/05/29 05:02:56;;;;;;;4.90;1.25;;;;;;;21.21;41.02;99928.28;4954988;29;20042;-64
2022/05/29 05:05:44;;;;;;;23.70;1.88;;;;;;;20.76;42.45;99928.13;4954599;28;20054;-64
2022/05/29 05:08:29;;;;;;;412.30;76.03;;;;;;;21.50;48.18;99923.28;4946446;29;20067;-64
2022/05/29 05:11:14;;;;;;;110.28;18.33;;;;;;;21.58;43.70;99914.53;4950928;29;20491;-64
2022/05/29 05:13:59;;;;;;;43.15;7.22;;;;;;;21.59;40.95;99907.00;4953907;29;20054;-64
2022/05/29 05:16:44;;;;;;;25.48;4.38;;;;;;;22.01;44.93;99911.38;4945976;29;20506;-64
2022/05/29 05:19:29;;;;;;;23.13;2.28;;;;;;;22.27;44.76;99915.44;4952042;29;20055;-64
2022/05/29 05:22:14;;;;;;;18.27;3.28;;;;;;;22.23;45.16;99923.00;4953771;29;20050;-64
2022/05/29 05:24:59;;;;;;;17.90;1.50;;;;;;;22.22;44.17;99919.44;4948468;29;20046;-64
2022/05/29 05:27:44;;;;;;;2.95;0.65;;;;;;;22.17;44.58;99919.91;4954423;29;20046;-64
2022/05/29 05:30:30;;;;;;;5.18;1.20;;;;;;;22.27;43.56;99920.97;4954589;29;20047;-64
2022/05/29 05:33:15;;;;;;;12.27;1.63;;;;;;;22.21;42.19;99912.31;4953957;29;20514;-64
2022/05/29 05:36:00;;;;;;;2.25;0.68;;;;;;;22.29;38.85;99918.59;4953010;29;20054;-63
2022/05/29 05:38:46;;;;;;;15.68;0.93;;;;;;;22.04;39.75;99925.19;4951893;29;20066;-64
2022/05/29 05:41:31;;;;;;;2.55;0.57;;;;;;;22.10;43.11;99923.53;4953741;29;20411;-64
2022/05/29 05:44:16;;;;;;;1.75;0.52;;;;;;;21.78;43.05;99920.28;4953317;29;20042;-64
2022/05/29 05:47:01;;;;;;;0.73;0.47;;;;;;;22.26;41.27;99919.38;4953335;29;20057;-64
2022/05/29 05:49:46;;;;;;;2.90;0.75;;;;;;;22.48;42.60;99918.72;4953845;29;20051;-65
2022/05/29 05:52:31;;;;;;;2.25;0.90;;;;;;;22.42;42.48;99930.69;4953574;29;20419;-64
2022/05/29 05:55:16;;;;;;;5.90;0.65;;;;;;;22.28;41.88;99937.19;4941977;29;20431;-64
2022/05/29 05:58:02;;;;;;;2.47;0.63;;;;;;;22.31;38.99;99936.34;4950557;29;20058;-64
2022/05/29 06:00:49;;;;;;;3.53;0.50;;;;;;;22.36;42.27;99938.66;4955411;28;20046;-64
2022/05/29 06:03:33;;;;;;;4.53;1.10;;;;;;;22.03;41.83;99948.53;4952968;29;20406;-64
2022/05/29 06:06:18;;;;;;;2.97;0.60;;;;;;;21.96;40.22;99942.28;4953456;29;20050;-64
2022/05/29 06:09:03;;;;;;;1.70;0.70;;;;;;;22.14;39.95;99938.13;4953725;29;20054;-64
2022/05/29 06:11:49;;;;;;;3.88;0.77;;;;;;;22.08;38.46;99928.69;4953536;29;20518;-64
2022/05/29 06:14:35;;;;;;;3.60;1.48;;;;;;;21.87;41.87;99928.88;4952890;29;20050;-64
2022/05/29 06:17:20;;;;;;;4.35;0.77;;;;;;;22.00;41.85;99932.72;4947335;29;20066;-65
2022/05/29 06:20:07;;;;;;;2.58;0.70;;;;;;;22.10;37.69;99940.13;4952841;28;20050;-62
2022/05/29 06:22:52;;;;;;;1.05;0.60;;;;;;;22.00;41.00;99948.56;4953130;29;20050;-64
2022/05/29 06:25:40;;;;;;;;;;;;;;;21.97;38.31;99950.16;4952903;29;21353;-64
2022/05/29 06:28:25;;;;;;;0.88;0.68;;;;;;;21.83;39.17;99950.28;4953260;29;19914;-64
2022/05/29 06:31:11;;;;;;;;;;;;;;;21.61;40.22;99937.81;4953318;29;20517;-63
2022/05/29 06:33:55;;;;;;;4.22;0.50;;;;;;;21.75;41.13;99937.69;4953161;29;20297;-63
2022/05/29 06:36:40;;;;;;;4.72;0.70;;;;;;;22.21;41.30;99948.34;4952253;28;20054;-64
2022/05/29 06:39:25;;;;;;;4.40;0.88;;;;;;;21.89;40.70;99947.88;4952670;29;20050;-64
2022/05/29 06:42:11;;;;;;;4.63;1.13;;;;;;;21.70;39.27;99938.94;4952643;29;20042;-62
2022/05/29 06:44:58;;;;;;;10.98;1.15;;;;;;;22.27;41.37;99952.22;4946261;29;20046;-63
2022/05/29 06:47:43;;;;;;;6.38;0.88;;;;;;;21.80;41.14;99945.56;4943924;29;20517;-62
2022/05/29 06:50:29;;;;;;;6.90;1.58;;;;;;;21.87;36.97;99933.63;4992059;23;20054;-86
2022/05/29 06:53:14;;;;;;;3.10;1.15;;;;;;;21.15;37.19;99941.75;4981835;28;20527;-82
2022/05/29 06:55:58;;;;;;;6.00;1.02;;;;;;;20.67;37.43;99940.81;4985107;28;20042;-85
2022/05/29 06:58:43;;;;;;;7.40;0.95;;;;;;;20.45;38.53;99932.63;4981795;28;20427;-85
2022/05/29 07:06:58;;;;;;;10.10;1.10;;;;;;;19.96;39.35;99936.25;5066066;23;20460;-59
2022/05/29 07:07:40;;;;;;;10.27;1.17;;;;;;;20.74;38.53;99929.72;4963693;28;20440;-59
2022/05/29 07:10:29;;;;;;;15.25;0.88;;;;;;;21.11;38.62;99938.19;4972316;28;20557;-60
2022/05/29 07:13:14;;;;;;;3.47;0.73;;;;;;;21.69;41.50;99933.78;4992032;28;20058;-60
2022/05/29 07:15:58;;;;;;;;;;;;;;;21.86;40.44;99924.53;4979920;28;20403;-60
2022/05/29 07:18:44;;;;;;;3.67;0.60;;;;;;;21.32;35.73;99927.00;4952948;29;19914;-60
2022/05/29 07:21:31;;;;;;;9.70;1.27;;;;;;;22.02;39.75;99924.81;4974625;28;20544;-60
2022/05/29 07:24:15;;;;;;;9.55;1.55;;;;;;;22.12;36.88;99923.91;4977367;28;20046;-60
2022/05/29 07:27:01;;;;;;;4.70;1.25;;;;;;;21.93;36.05;99920.94;4950037;29;20054;-60
2022/05/29 07:29:46;;;;;;;5.53;0.70;;;;;;;21.45;38.20;99934.78;4953082;28;20506;-60
2022/05/29 07:32:32;;;;;;;3.70;0.70;;;;;;;21.63;38.19;99932.69;4963331;28;20438;-60
2022/05/29 07:35:17;;;;;;;2.25;0.63;;;;;;;21.50;38.56;99929.63;4976215;28;20522;-60
2022/05/29 07:38:02;;;;;;;2.58;1.00;;;;;;;21.71;39.13;99925.88;4956506;29;20054;-60
2022/05/29 07:40:47;;;;;;;1.83;0.50;;;;;;;20.98;36.84;99919.72;4956779;29;20046;-60
2022/05/29 07:43:32;;;;;;;3.65;0.60;;;;;;;21.37;34.81;99911.16;4956782;29;20062;-60
2022/05/29 07:46:17;;;;;;;2.70;0.60;;;;;;;21.53;37.86;99914.19;4974435;28;20046;-60
2022/05/29 07:49:02;;;;;;;28.58;2.50;;;;;;;21.91;38.07;99918.56;4956836;28;20050;-60
2022/05/29 07:51:48;;;;;;;7.72;1.00;;;;;;;21.70;34.38;99914.00;4969310;28;20045;-60
2022/05/29 07:54:33;;;;;;;2.53;0.52;;;;;;;20.32;35.65;99903.84;4968415;28;20440;-64
2022/05/29 07:57:19;;;;;;;2.25;0.50;;;;;;;19.78;37.07;99905.16;4974278;28;20133;-65
2022/05/29 08:00:07;;;;;;;1.67;0.40;;;;;;;19.72;37.71;99905.97;4975177;28;20238;-65
2022/05/29 08:02:56;;;;;;;3.92;0.93;;;;;;;19.72;38.50;99908.72;4974353;28;20387;-64
2022/05/29 08:05:41;;;;;;;;;;;;;;;19.90;36.85;99906.72;4975136;28;20413;-64
2022/05/29 08:08:28;;;;;;;2.10;0.80;;;;;;;20.10;36.93;99904.31;4974660;28;19914;-65
2022/05/29 08:11:17;;;;;;;1.83;0.50;;;;;;;19.85;37.46;99904.38;4974086;28;20057;-64
2022/05/29 08:14:04;;;;;;;6.50;0.93;;;;;;;19.53;39.20;99913.47;4975048;28;20058;-64
2022/05/29 08:16:48;;;;;;;1.10;0.60;;;;;;;19.29;38.73;99908.72;4974648;28;20513;-64
2022/05/29 08:19:34;;;;;;;3.40;0.80;;;;;;;19.63;38.03;99909.91;4975221;28;20045;-64
2022/05/29 08:22:19;;;;;;;4.68;0.90;;;;;;;19.70;37.76;99911.09;4974372;28;20070;-64
2022/05/29 08:31:12;;;;;;;3.70;0.65;;;;;;;20.05;36.93;99906.31;4975401;28;20406;-64
2022/05/29 08:33:57;;;;;;;5.15;0.85;;;;;;;20.06;37.04;99896.06;4955770;29;20525;-65
2022/05/29 08:36:42;;;;;;;5.95;0.63;;;;;;;20.06;37.04;99893.28;4955368;29;20553;-64
2022/05/29 08:39:28;;;;;;;3.20;0.88;;;;;;;20.25;36.66;99881.78;4955611;29;20062;-64
2022/05/29 08:42:17;;;;;;;3.63;0.50;;;;;;;20.53;35.86;99893.91;4958703;28;20069;-64
2022/05/29 08:45:04;;;;;;;3.10;0.70;;;;;;;20.56;36.80;99885.63;4971985;28;20053;-64
2022/05/29 08:47:50;;;;;;;1.60;0.68;;;;;;;20.54;36.79;99887.19;4974415;28;20414;-64
2022/05/29 08:50:51;;;;;;;2.55;0.60;;;;;;;20.61;37.08;99882.44;4974216;28;20049;-65
2022/05/29 08:54:02;;;;;;;1.45;0.60;;;;;;;20.59;35.71;99884.00;4977372;28;20054;-64
2022/05/29 08:56:50;;;;;;;1.27;0.68;;;;;;;20.98;36.94;99884.53;4973917;28;20054;-65
2022/05/29 08:59:38;;;;;;;4.85;0.68;;;;;;;21.21;35.50;99882.03;4972530;28;20066;-64
2022/05/29 09:02:55;;;;;;;2.13;0.60;;;;;;;21.22;34.39;99888.38;4973717;28;20057;-64
2022/05/29 09:05:43;;;;;;;1.20;0.52;;;;;;;20.71;35.25;99884.34;4965353;28;20069;-64
2022/05/29 09:08:40;;;;;;;3.35;0.80;;;;;;;20.55;35.18;99892.31;4973599;28;20525;-64
2022/05/29 09:11:30;;;;;;;2.17;1.13;;;;;;;20.23;35.94;99884.13;4973913;28;20545;-64
2022/05/29 09:14:23;;;;;;;3.40;0.52;;;;;;;20.67;35.54;99882.78;4970959;28;20053;-65
2022/05/29 09:17:19;;;;;;;5.82;1.13;;;;;;;20.76;35.36;99874.84;4973760;28;20054;-64
2022/05/29 09:20:12;;;;;;;2.30;0.65;;;;;;;20.72;35.99;99883.16;4974332;28;20421;-64
2022/05/29 09:23:00;;;;;;;3.70;0.55;;;;;;;20.85;35.07;99886.22;4974074;28;20061;-65
2022/05/29 09:25:46;;;;;;;3.40;1.10;;;;;;;20.51;35.96;99888.00;4961944;28;20528;-64
2022/05/29 09:28:38;;;;;;;1.42;0.85;;;;;;;20.02;36.67;99889.72;4973514;28;20046;-64
2022/05/29 09:31:25;;;;;;;2.65;0.82;;;;;;;20.23;37.99;99892.44;4973567;28;20053;-64
2022/05/29 09:34:11;;;;;;;2.88;0.52;;;;;;;20.11;36.92;99887.34;4972652;28;20182;-64
2022/05/29 09:37:02;;;;;;;2.15;0.60;;;;;;;20.07;37.16;99878.28;4970546;28;20513;-64
2022/05/29 09:39:55;;;;;;;3.15;0.50;;;;;;;19.83;37.58;99874.41;4968268;28;20041;-64
2022/05/29 09:42:43;;;;;;;1.02;0.50;;;;;;;19.20;38.63;99884.28;4971605;28;20050;-64
2022/05/29 09:45:32;;;;;;;7.60;0.60;;;;;;;19.36;37.86;99883.09;4971164;28;20065;-64
2022/05/29 09:51:38;;;;;;;1.42;0.52;;;;;;;19.36;38.20;99896.88;4971017;28;20666;-66
2022/05/29 09:54:29;;;;;;;12.20;3.85;;;;;;;19.36;38.94;99889.41;4972692;28;20053;-66
2022/05/29 09:57:22;;;;;;;17.83;3.40;;;;;;;19.36;38.95;99886.66;4972593;28;20046;-62
2022/05/29 10:00:14;;;;;;;50.50;11.60;;;;;;;19.51;39.52;99882.75;4968464;28;20161;-65
2022/05/29 10:03:01;;;;;;;14.40;3.72;;;;;;;19.27;38.86;99891.00;4969251;28;20532;-64
2022/05/29 10:05:46;;;;;;;10.30;2.60;;;;;;;19.35;39.14;99890.59;4968698;28;20406;-65
2022/05/29 10:08:32;;;;;;;7.35;1.55;;;;;;;19.40;38.63;99901.22;4950578;28;20049;-65
2022/05/29 10:11:30;;;;;;;36.20;7.93;;;;;;;19.43;39.53;99903.22;4960804;28;20041;-65
2022/05/29 10:14:24;;;;;;;8.18;1.50;;;;;;;19.14;39.00;99894.16;4975421;28;20054;-65
2022/05/29 10:17:27;;;;;;;15.80;3.40;;;;;;;19.32;39.59;99898.88;4982892;28;20521;-65
2022/05/29 10:20:30;;;;;;;15.23;2.90;;;;;;;19.36;39.86;99886.66;4986055;28;20673;-65
2022/05/29 10:23:32;;;;;;;5.43;1.30;;;;;;;19.16;40.01;99878.00;4986066;28;20046;-65
2022/05/29 10:26:32;;;;;;;16.65;3.45;;;;;;;19.28;40.76;99882.34;4980936;28;20045;-65
2022/05/29 10:29:20;;;;;;;9.68;1.45;;;;;;;19.36;40.10;99883.09;4975403;28;20111;-65
2022/05/29 10:32:09;;;;;;;5.07;1.05;;;;;;;19.29;39.89;99886.69;4981693;28;20041;-65
2022/05/29 10:35:12;;;;;;;2.17;0.50;;;;;;;19.25;40.61;99883.09;4990121;28;20057;-65
2022/05/29 10:38:31;;;;;;;7.15;1.63;;;;;;;19.34;40.64;99882.72;4991629;28;20037;-65
2022/05/29 10:41:33;;;;;;;8.32;1.20;;;;;;;19.32;40.46;99896.13;4991329;28;20057;-65
2022/05/29 10:44:37;;;;;;;6.65;1.25;;;;;;;19.36;40.64;99889.41;4991671;28;20045;-65
2022/05/29 10:47:31;;;;;;;4.45;1.50;;;;;;;19.28;40.76;99889.81;4991463;28;20057;-65
2022/05/29 10:50:23;;;;;;;4.85;1.33;;;;;;;19.21;40.71;99883.13;4978903;28;20049;-64
2022/05/29 10:53:14;;;;;;;11.57;1.10;;;;;;;19.21;40.25;99879.56;4981549;28;20517;-65
2022/05/29 10:56:08;;;;;;;6.82;1.45;;;;;;;19.14;40.78;99876.81;4994884;28;20453;-65
2022/05/29 10:58:59;;;;;;;2.60;1.05;;;;;;;19.03;40.40;99874.06;4988353;28;20057;-65
2022/05/29 11:05:40;;;;;;;2.45;1.20;;;;;;;19.04;40.66;99896.91;4971092;28;20045;-65
2022/05/29 11:08:50;;;;;;;2.38;1.00;;;;;;;18.97;40.98;99897.66;4983870;28;20050;-65
2022/05/29 11:12:20;;;;;;;3.53;1.17;;;;;;;18.97;41.18;99899.63;4971105;28;20046;-65
2022/05/29 11:15:24;;;;;;;3.05;1.20;;;;;;;19.07;41.74;99907.91;4983989;28;20045;-64
2022/05/29 11:18:21;;;;;;;2.13;0.85;;;;;;;18.98;42.26;99903.97;4990990;28;20049;-64
2022/05/29 11:21:16;;;;;;;5.20;1.75;;;;;;;19.01;42.65;99900.41;4990731;28;20045;-65
2022/05/29 11:24:21;;;;;;;3.10;0.95;;;;;;;19.06;42.47;99884.28;4990808;28;20046;-65
2022/05/29 11:27:31;;;;;;;6.80;1.23;;;;;;;19.05;42.54;99887.44;4968302;28;20042;-65
2022/05/29 11:30:18;;;;;;;6.55;1.10;;;;;;;18.82;43.25;99889.78;4971196;28;20049;-65
2022/05/29 11:33:23;;;;;;;2.92;0.93;;;;;;;18.86;43.80;99890.56;4975121;28;20045;-65
2022/05/29 11:36:30;;;;;;;2.05;0.80;;;;;;;18.99;43.64;99900.03;4983832;28;20065;-65
2022/05/29 11:39:36;;;;;;;4.80;1.35;;;;;;;18.97;43.68;99891.38;4990717;28;20045;-65
2022/05/29 11:42:30;;;;;;;1.15;0.75;;;;;;;19.01;42.80;99886.63;4990575;28;20046;-65
2022/05/29 11:51:07;;;;;;;2.83;1.50;;;;;;;19.12;43.45;99879.19;4990253;28;20045;-65
2022/05/29 11:51:49;;;;;;;3.42;0.80;;;;;;;19.21;43.02;99893.34;4974624;28;20038;-65
2022/05/29 11:54:41;;;;;;;2.83;1.35;;;;;;;19.13;43.17;99872.50;4971574;28;20130;-65
2022/05/29 11:57:36;;;;;;;1.50;0.75;;;;;;;19.10;43.27;99881.53;4985765;28;20053;-65
2022/05/29 12:00:45;;;;;;;2.97;0.98;;;;;;;19.08;43.88;99864.63;4984656;28;20046;-65
2022/05/29 12:03:43;;;;;;;1.45;0.80;;;;;;;19.13;43.29;99870.53;4971071;28;20045;-65
2022/05/29 12:06:38;;;;;;;3.92;1.05;;;;;;;19.12;42.85;99866.19;4970167;28;20054;-64
2022/05/29 12:09:33;;;;;;;2.72;0.70;;;;;;;19.18;43.10;99880.38;4990184;28;20057;-66
2022/05/29 12:12:24;;;;;;;2.92;0.90;;;;;;;19.27;43.76;99866.19;4973298;28;20050;-64
2022/05/29 12:15:16;;;;;;;3.75;1.00;;;;;;;19.28;42.80;99857.53;4974977;28;20050;-65
2022/05/29 12:18:07;;;;;;;6.88;0.90;;;;;;;19.25;42.53;99869.31;4973583;28;20061;-65
2022/05/29 12:21:00;;;;;;;7.28;2.10;;;;;;;19.31;42.92;99880.75;4974209;28;20050;-64
2022/05/29 12:23:50;;;;;;;5.82;1.52;;;;;;;19.30;42.99;99879.19;4975372;28;20058;-64
2022/05/29 12:26:46;;;;;;;5.80;1.73;;;;;;;19.33;42.90;99889.41;4974318;28;20049;-65
2022/05/29 12:29:37;;;;;;;4.57;2.00;;;;;;;19.29;43.16;99892.19;4975144;28;20058;-65
2022/05/29 12:32:28;;;;;;;7.20;1.85;;;;;;;19.28;42.99;99890.59;4974005;28;20053;-64
2022/05/29 12:35:37;;;;;;;7.25;2.03;;;;;;;19.32;43.39;99879.56;4974602;28;20570;-64
2022/05/29 12:38:29;;;;;;;12.55;1.67;;;;;;;19.24;43.96;99878.81;4971840;28;20041;-64
2022/05/29 12:41:37;;;;;;;9.68;3.03;;;;;;;19.34;43.33;99889.03;4975505;28;20050;-64
2022/05/29 12:44:26;;;;;;;5.75;1.55;;;;;;;19.33;43.22;99889.41;4974799;28;20054;-65
2022/05/29 12:47:16;;;;;;;3.80;1.58;;;;;;;19.37;43.64;99898.47;4974428;28;20058;-64
2022/05/29 12:50:08;;;;;;;5.93;1.98;;;;;;;19.35;43.25;99892.59;5034437;23;20056;-65
2022/05/29 12:53:24;;;;;;;10.45;2.13;;;;;;;19.40;43.48;99892.19;4998643;28;20413;-65
2022/05/29 12:56:28;;;;;;;3.88;1.42;;;;;;;19.27;43.80;99893.75;5008654;28;20045;-65
2022/05/29 12:59:12;;;;;;;4.35;1.52;;;;;;;19.20;44.30;99891.78;5002397;28;20057;-65
2022/05/29 13:02:09;;;;;;;;;;;;;;;19.23;43.97;99893.75;4994013;28;20496;-65
2022/05/29 13:05:07;;;;;;;4.63;1.15;;;;;;;19.10;44.15;99903.56;4993623;28;19913;-65
2022/05/29 13:08:28;;;;;;;6.18;1.20;;;;;;;19.19;44.64;99899.28;4992396;28;20045;-65
2022/05/29 13:11:25;;;;;;;2.85;1.20;;;;;;;19.20;44.32;99905.56;4989450;28;20045;-65
2022/05/29 13:14:10;;;;;;;4.05;1.50;;;;;;;19.24;44.19;99903.59;4992983;28;20041;-65
2022/05/29 13:17:08;;;;;;;;;;;;;;;19.29;44.20;99902.44;4992955;28;20057;-65
2022/05/29 13:19:58;;;;;;;2.22;1.27;;;;;;;19.31;44.41;99905.56;4993230;28;19914;-65
2022/05/29 13:23:06;;;;;;;8.85;1.23;;;;;;;19.34;45.24;99902.81;4993140;28;20389;-65
2022/05/29 13:25:57;;;;;;;1.38;0.98;;;;;;;19.31;44.38;99911.88;4993019;28;20045;-65
2022/05/29 13:28:43;;;;;;;2.90;1.42;;;;;;;19.31;43.95;99914.63;4992990;28;20053;-65
2022/05/29 13:31:31;;;;;;;2.60;0.95;;;;;;;19.31;44.36;99916.59;4993104;28;20050;-65
2022/05/29 13:34:29;;;;;;;3.70;1.45;;;;;;;19.35;44.26;99911.88;4993021;28;20418;-65
2022/05/29 13:37:39;;;;;;;4.32;1.23;;;;;;;19.31;44.16;99917.38;4994429;28;20049;-65
2022/05/29 13:40:27;;;;;;;3.28;1.15;;;;;;;19.43;44.58;99914.25;4992688;28;20501;-65
2022/05/29 13:43:15;;;;;;;2.00;0.95;;;;;;;19.37;44.43;99913.06;4992589;28;20045;-65
2022/05/29 13:46:17;;;;;;;1.58;1.15;;;;;;;19.21;44.68;99916.19;4992814;28;20126;-65
2022/05/29 13:49:07;;;;;;;3.13;1.35;;;;;;;19.29;45.03;99905.97;4992782;28;20053;-65